createdAt,value
2019-03-06T05:06:06.130Z,0.1
2019-03-06T05:08:01.250Z,0.2
2019-03-06T05:09:01.158Z,0.3
2019-03-06T05:11:01.126Z,0.4
2019-03-06T05:12:01.070Z,0.5
2019-03-06T05:13:01.240Z,0.6
2019-03-06T05:14:01.094Z,0.7
2019-03-06T05:15:01.098Z,0.9
2019-03-06T05:16:01.166Z,1.1
2019-03-06T05:17:01.063Z,1.3
2019-03-06T05:18:01.313Z,1.5
2019-03-06T05:19:01.094Z,1.8
2019-03-06T05:20:01.094Z,2.1
2019-03-06T05:21:01.993Z,2.5
2019-03-06T05:22:01.106Z,2.9
2019-03-06T05:23:01.243Z,3.4
2019-03-06T05:24:01.098Z,4.1
2019-03-06T05:25:01.097Z,4.9
2019-03-06T05:26:01.064Z,5.8
2019-03-06T05:27:06.074Z,6.9
2019-03-06T05:28:01.219Z,8.3
2019-03-06T05:29:01.103Z,9.9
2019-03-06T05:30:01.103Z,11.7
2019-03-06T05:31:01.073Z,13.9
2019-03-06T05:32:01.132Z,16.5
2019-03-06T05:33:02.161Z,19.5
2019-03-06T05:34:01.072Z,23.1
2019-03-06T05:35:01.107Z,27.1
2019-03-06T05:36:01.103Z,31.9
2019-03-06T05:37:01.128Z,37.3
2019-03-06T05:38:01.242Z,43.7
2019-03-06T05:39:01.098Z,51.0
2019-03-06T05:41:01.085Z,61.1
2019-03-06T05:42:01.075Z,72.9
2019-03-06T05:43:01.224Z,86.5
2019-03-06T05:44:01.083Z,102.1
2019-03-06T05:45:01.083Z,120.1
2019-03-06T05:46:01.083Z,140.8
2019-03-06T05:47:01.085Z,165.1
2019-03-06T05:48:01.281Z,194.7
2019-03-06T05:49:01.084Z,231.9
2019-03-06T05:50:01.053Z,279.8
2019-03-06T05:51:01.054Z,339.7
2019-03-06T05:52:01.088Z,410.7
2019-03-06T05:53:01.234Z,491.1
2019-03-06T05:54:01.088Z,577.1
2019-03-06T05:55:01.096Z,668.9
2019-03-06T05:56:01.125Z,756.5
2019-03-06T05:57:01.096Z,836.9
2019-03-06T05:58:01.241Z,914.0
2019-03-06T05:59:01.091Z,998.4
2019-03-06T06:00:01.096Z,1090.1
2019-03-06T06:01:06.062Z,1182.9
2019-03-06T06:02:01.094Z,1272.8
2019-03-06T06:03:01.204Z,1360.1
2019-03-06T06:04:01.095Z,1442.3
2019-03-06T06:05:01.066Z,1516.1
2019-03-06T06:06:01.087Z,1582.2
2019-03-06T06:07:01.061Z,1643.7
2019-03-06T06:08:01.212Z,1704.0
2019-03-06T06:09:01.063Z,1767.5
2019-03-06T06:10:01.068Z,1834.7
2019-03-06T06:11:01.101Z,1914.3
2019-03-06T06:13:01.235Z,2023.3
2019-03-06T06:14:01.058Z,2146.1
2019-03-06T06:15:01.096Z,2272.2
2019-03-06T06:16:06.095Z,2400.4
2019-03-06T06:17:01.097Z,2534.4
2019-03-06T06:18:01.244Z,2676.9
2019-03-06T06:19:01.807Z,2825.7
2019-03-06T06:20:01.063Z,2981.5
2019-03-06T06:21:06.062Z,3146.5
2019-03-06T06:22:01.095Z,3321.2
2019-03-06T06:23:01.432Z,3506.8
2019-03-06T06:24:01.130Z,3704.2
2019-03-06T06:25:01.095Z,3915.1
2019-03-06T06:26:01.099Z,4141.8
2019-03-06T06:27:01.091Z,4388.3
2019-03-06T06:28:01.207Z,4648.3
2019-03-06T06:29:01.095Z,4939.4
2019-03-06T06:30:01.091Z,5264.3
2019-03-06T06:31:01.062Z,5621.9
2019-03-06T06:32:01.126Z,6008.3
2019-03-06T06:33:01.239Z,6415.3
2019-03-06T06:34:01.104Z,6835.0
2019-03-06T06:35:01.068Z,7260.5
2019-03-06T06:36:01.067Z,7688.7
2019-03-06T06:37:06.097Z,8119.9
2019-03-06T06:38:01.237Z,8555.1
2019-03-06T06:39:01.073Z,8997.9
2019-03-06T06:40:01.097Z,9452.0
2019-03-06T06:41:01.915Z,9919.6
2019-03-06T06:42:06.104Z,10400.3
2019-03-06T06:43:01.247Z,10888.1
2019-03-06T06:44:01.105Z,11373.9
2019-03-06T06:45:01.105Z,11856.7
2019-03-06T06:46:01.108Z,12341.5
2019-03-06T06:47:01.132Z,12836.1
2019-03-06T06:48:01.249Z,13351.3
2019-03-06T06:49:01.073Z,13895.0
2019-03-06T06:50:01.109Z,14469.8
2019-03-06T06:51:01.979Z,15070.3
2019-03-06T06:53:01.231Z,15723.7
2019-03-06T06:54:01.067Z,16388.1
2019-03-06T06:55:01.055Z,17061.1
2019-03-06T06:56:01.085Z,17740.1
2019-03-06T06:57:01.087Z,18423.5
2019-03-06T06:58:01.201Z,19106.5
2019-03-06T06:59:01.062Z,19783.4
2019-03-06T07:00:01.076Z,20454.3
2019-03-06T07:01:01.053Z,21115.5
2019-03-06T07:02:01.061Z,21765.0
2019-03-06T07:03:01.340Z,22403.7
2019-03-06T07:04:01.094Z,23028.7
2019-03-06T07:05:01.093Z,23637.4
2019-03-06T07:06:01.097Z,24228.6
2019-03-06T07:07:01.061Z,24805.6
2019-03-06T07:08:01.270Z,25333.4
2019-03-06T07:09:01.064Z,25846.7
2019-03-06T07:10:02.088Z,26339.4
2019-03-06T07:11:01.060Z,26806.7
2019-03-06T07:12:01.098Z,27247.5
2019-03-06T07:13:01.235Z,27666.2
2019-03-06T07:14:01.090Z,28069.9
2019-03-06T07:15:01.099Z,28464.3
2019-03-06T07:16:01.094Z,28855.7
2019-03-06T07:17:01.093Z,29241.9
2019-03-06T07:18:01.427Z,29616.0
2019-03-06T07:20:01.061Z,29994.7
2019-03-06T07:21:01.097Z,30360.8
2019-03-06T07:22:01.054Z,30727.1
2019-03-06T07:23:01.056Z,31104.1
2019-03-06T07:24:01.291Z,31504.5
2019-03-06T07:25:01.098Z,31931.7
2019-03-06T07:26:01.095Z,32383.9
2019-03-06T07:27:01.091Z,32855.7
2019-03-06T07:28:01.087Z,33337.7
2019-03-06T07:29:01.414Z,33823.4
2019-03-06T07:30:01.095Z,34314.9
2019-03-06T07:31:01.062Z,34822.4
2019-03-06T07:32:01.089Z,35351.7
2019-03-06T07:33:02.128Z,35913.4
2019-03-06T07:34:01.718Z,36482.8
2019-03-06T07:35:01.097Z,37073.3
2019-03-06T07:36:01.098Z,37706.5
2019-03-06T07:37:01.060Z,38374.1
2019-03-06T07:38:06.161Z,39068.3
2019-03-06T07:39:01.274Z,39774.7
2019-03-06T07:40:01.095Z,40495.3
2019-03-06T07:41:01.091Z,41221.0
2019-03-06T07:42:01.092Z,41952.7
2019-03-06T07:43:06.098Z,42672.5
2019-03-06T07:44:01.242Z,43340.2
2019-03-06T07:45:01.102Z,43927.9
2019-03-06T07:46:01.096Z,44405.3
2019-03-06T07:47:01.064Z,44753.3
2019-03-06T07:48:01.094Z,44934.2
2019-03-06T07:49:01.246Z,44962.5
2019-03-06T07:50:01.099Z,44828.7
2019-03-06T07:51:01.063Z,44571.3
2019-03-06T07:52:01.098Z,44234.7
2019-03-06T07:53:01.125Z,43857.0
2019-03-06T07:54:02.299Z,43466.3
2019-03-06T07:55:01.068Z,43046.1
2019-03-06T07:56:01.101Z,42585.7
2019-03-06T07:57:06.064Z,42084.7
2019-03-06T07:58:01.095Z,41590.3
2019-03-06T07:59:01.304Z,41172.7
2019-03-06T08:00:01.061Z,40881.0
2019-03-06T08:01:01.063Z,40738.5
2019-03-06T08:02:01.091Z,40749.1
2019-03-06T08:03:01.099Z,40938.2
2019-03-06T08:04:01.278Z,41313.7
2019-03-06T08:05:01.209Z,41829.7
2019-03-06T08:06:01.064Z,42439.4
2019-03-06T08:07:01.143Z,43109.4
2019-03-06T08:08:01.095Z,43802.3
2019-03-06T08:09:01.339Z,44511.6
2019-03-06T08:10:01.222Z,45240.3
2019-03-06T08:11:01.098Z,45964.8
2019-03-06T08:12:01.126Z,46669.1
2019-03-06T08:13:01.161Z,47402.3
2019-03-06T08:14:01.248Z,48156.7
2019-03-06T08:15:01.063Z,48838.9
2019-03-06T08:16:01.512Z,49397.5
2019-03-06T08:17:01.135Z,49854.2
2019-03-06T08:18:01.097Z,50260.4
2019-03-06T08:19:01.238Z,50648.1
2019-03-06T08:20:01.062Z,51058.1
2019-03-06T08:21:01.126Z,51511.6
2019-03-06T08:22:01.097Z,52027.9
2019-03-06T08:23:01.097Z,52618.6
2019-03-06T08:24:01.220Z,53272.5
2019-03-06T08:25:01.073Z,53968.3
2019-03-06T08:26:01.064Z,54704.3
2019-03-06T08:27:01.130Z,55454.3
2019-03-06T08:28:01.103Z,56120.3
2019-03-06T08:29:01.216Z,56655.6
2019-03-06T08:30:01.072Z,57095.1
2019-03-06T08:31:01.069Z,57463.3
2019-03-06T08:32:06.114Z,57750.6
2019-03-06T08:33:01.111Z,57929.7
2019-03-06T08:34:01.310Z,57996.1
2019-03-06T08:35:01.901Z,57957.4
2019-03-06T08:36:01.108Z,57808.7
2019-03-06T08:37:01.142Z,57521.6
2019-03-06T08:38:01.104Z,57093.9
2019-03-06T08:39:01.307Z,56556.1
2019-03-06T08:40:01.072Z,55976.9
2019-03-06T08:41:04.461Z,55422.7
2019-03-06T08:42:01.132Z,54932.3
2019-03-06T08:43:01.106Z,54514.9
2019-03-06T08:45:01.093Z,54145.5
2019-03-06T08:46:01.088Z,53864.1
2019-03-06T08:47:01.128Z,53718.5
2019-03-06T08:48:01.057Z,53743.1
2019-03-06T08:49:01.233Z,53928.4
2019-03-06T08:50:01.087Z,54252.7
2019-03-06T08:51:01.055Z,54670.2
2019-03-06T08:52:01.057Z,55140.2
2019-03-06T08:53:06.086Z,55630.4
2019-03-06T08:54:01.240Z,56108.9
2019-03-06T08:55:01.056Z,56537.8
2019-03-06T08:56:01.098Z,56870.3
2019-03-06T08:57:01.070Z,57083.9
2019-03-06T08:58:06.102Z,57193.5
2019-03-06T08:59:01.243Z,57230.9
2019-03-06T09:00:01.110Z,57255.2
2019-03-06T09:01:01.068Z,57275.9
2019-03-06T09:02:01.318Z,57283.5
2019-03-06T09:03:01.091Z,57244.1
2019-03-06T09:04:01.303Z,57138.2
2019-03-06T09:05:01.097Z,56958.7
2019-03-06T09:06:01.097Z,56743.0
2019-03-06T09:07:01.062Z,56563.8
2019-03-06T09:08:01.118Z,56487.9
2019-03-06T09:09:02.219Z,56548.9
2019-03-06T09:10:01.097Z,56757.7
2019-03-06T09:11:02.949Z,57125.3
2019-03-06T09:12:01.082Z,57657.7
2019-03-06T09:13:06.069Z,58282.8
2019-03-06T09:14:01.222Z,58939.6
2019-03-06T09:15:01.092Z,59621.3
2019-03-06T09:16:01.063Z,60311.3
2019-03-06T09:17:01.069Z,60992.0
2019-03-06T09:18:08.758Z,61470.5
2019-03-06T09:19:01.239Z,61763.7
2019-03-06T09:20:01.101Z,61944.9
2019-03-06T09:21:01.099Z,62058.3
2019-03-06T09:22:01.100Z,62075.5
2019-03-06T09:23:01.105Z,61921.5
2019-03-06T09:24:01.354Z,61586.4
2019-03-06T09:25:01.097Z,61108.1
2019-03-06T09:26:01.100Z,60527.9
2019-03-06T09:27:01.074Z,59861.7
2019-03-06T09:28:01.071Z,59190.0
2019-03-06T09:29:01.587Z,58596.4
2019-03-06T09:30:01.106Z,58122.3
2019-03-06T09:31:01.084Z,57788.9
2019-03-06T09:32:01.106Z,57546.0
2019-03-06T09:33:01.073Z,57511.7
2019-03-06T09:34:01.310Z,57655.1
2019-03-06T09:35:01.074Z,57931.7
2019-03-06T09:37:01.067Z,58247.0
2019-03-06T09:38:01.087Z,58601.7
2019-03-06T09:39:01.264Z,59094.9
2019-03-06T09:40:01.091Z,59756.7
2019-03-06T09:41:01.124Z,60507.5
2019-03-06T09:42:01.093Z,61247.5
2019-03-06T09:43:01.088Z,61960.5
2019-03-06T09:44:01.247Z,62632.2
2019-03-06T09:45:01.095Z,63225.8
2019-03-06T09:46:01.055Z,63699.9
2019-03-06T09:47:01.096Z,64033.3
2019-03-06T09:48:01.100Z,64276.2
2019-03-06T09:49:01.275Z,64301.0
2019-03-06T09:50:01.064Z,64187.5
2019-03-06T09:51:01.096Z,63962.5
2019-03-06T09:52:01.107Z,63654.2
2019-03-06T09:53:01.104Z,63295.1
2019-03-06T09:54:01.266Z,62742.0
2019-03-06T09:55:01.097Z,61916.1
2019-03-06T09:56:01.065Z,60914.4
2019-03-06T09:57:01.109Z,59873.3
2019-03-06T09:58:01.094Z,58902.2
2019-03-06T09:59:01.277Z,58122.5
2019-03-06T10:00:01.111Z,57595.9
2019-03-06T10:01:01.092Z,57162.1
2019-03-06T10:02:06.640Z,56490.4
2019-03-06T10:03:01.120Z,55649.5
2019-03-06T10:04:01.207Z,55167.7
2019-03-06T10:05:01.095Z,55234.1
2019-03-06T10:06:01.089Z,55655.1
2019-03-06T10:07:01.095Z,56172.7
2019-03-06T10:08:01.063Z,56576.1
2019-03-06T10:09:01.302Z,56902.7
2019-03-06T10:10:01.080Z,57319.0
2019-03-06T10:11:01.086Z,58132.8
2019-03-06T10:12:06.065Z,59173.9
2019-03-06T10:13:01.063Z,60145.0
2019-03-06T10:14:01.208Z,60924.7
2019-03-06T10:15:01.097Z,61451.3
2019-03-06T10:16:01.095Z,61885.1
2019-03-06T10:17:06.064Z,62556.8
2019-03-06T10:18:01.100Z,63397.7
2019-03-06T10:19:01.206Z,64074.5
2019-03-06T10:20:01.064Z,64340.0
2019-03-06T10:23:08.195Z,64504.9
2019-03-06T10:24:01.259Z,64880.6
2019-03-06T10:25:01.104Z,65347.1
2019-03-06T10:26:01.102Z,65535.0
2019-03-06T10:30:01.081Z,65535.0
2019-03-06T10:33:01.130Z,65416.9
2019-03-06T10:45:01.367Z,65416.9
2019-03-06T10:49:01.086Z,65535.0
2019-03-06T11:00:01.495Z,65535.0
2019-03-06T11:15:01.347Z,65535.0
2019-03-06T11:30:01.242Z,65535.0
2019-03-06T11:45:01.366Z,65535.0
2019-03-06T11:57:01.491Z,65442.6
2019-03-06T12:00:01.064Z,65442.6
2019-03-06T12:01:01.095Z,64783.2
2019-03-06T12:02:01.245Z,63707.9
2019-03-06T12:03:01.072Z,62978.9
2019-03-06T12:04:06.063Z,62277.3
2019-03-06T12:05:01.060Z,61063.0
2019-03-06T12:06:01.099Z,60788.1
2019-03-06T12:07:01.215Z,60336.5
2019-03-06T12:08:01.092Z,59698.9
2019-03-06T12:09:02.032Z,59186.7
2019-03-06T12:10:01.100Z,58898.9
2019-03-06T12:11:01.093Z,58357.9
2019-03-06T12:12:01.238Z,58150.7
2019-03-06T12:13:01.066Z,58048.9
2019-03-06T12:15:01.156Z,58048.9
2019-03-06T12:16:01.094Z,58652.7
2019-03-06T12:17:01.271Z,59366.5
2019-03-06T12:18:01.095Z,59832.7
2019-03-06T12:19:01.094Z,60446.7
2019-03-06T12:20:07.659Z,61661.0
2019-03-06T12:21:01.072Z,61935.9
2019-03-06T12:22:01.252Z,62387.5
2019-03-06T12:23:01.099Z,63025.1
2019-03-06T12:24:01.070Z,63537.3
2019-03-06T12:25:01.245Z,63825.1
2019-03-06T12:26:01.069Z,64366.1
2019-03-06T12:27:01.275Z,64665.7
2019-03-06T12:28:01.100Z,64767.5
2019-03-06T12:30:01.073Z,64767.5
2019-03-06T12:31:01.099Z,64379.7
2019-03-06T12:32:01.284Z,63843.3
2019-03-06T12:33:01.075Z,62960.5
2019-03-06T12:34:01.076Z,61764.6
2019-03-06T12:35:01.069Z,60789.9
2019-03-06T12:36:01.080Z,59631.3
2019-03-06T12:37:01.295Z,58499.8
2019-03-06T12:38:01.100Z,57932.0
2019-03-06T12:39:01.108Z,57333.9
2019-03-06T12:40:01.111Z,56763.3
2019-03-06T12:41:01.068Z,55901.2
2019-03-06T12:42:01.325Z,54654.4
2019-03-06T12:43:01.074Z,53717.0
2019-03-06T12:44:09.973Z,52199.4
2019-03-06T12:45:01.102Z,50757.7
2019-03-06T12:46:01.104Z,49917.4
2019-03-06T12:47:01.250Z,49424.2
2019-03-06T12:48:01.100Z,49129.5
2019-03-06T12:50:05.529Z,48850.9
2019-03-06T12:51:01.050Z,48444.6
2019-03-06T12:52:02.317Z,48190.6
2019-03-06T12:53:01.055Z,47815.1
2019-03-06T12:54:01.052Z,47027.1
2019-03-06T12:55:01.050Z,46287.3
2019-03-06T12:56:01.086Z,45467.9
2019-03-06T12:57:01.195Z,44911.1
2019-03-06T12:58:01.086Z,44755.9
2019-03-06T12:59:01.093Z,44362.6
2019-03-06T13:00:01.052Z,44584.5
2019-03-06T13:01:01.083Z,44681.8
2019-03-06T13:02:01.195Z,44553.7
2019-03-06T13:03:01.085Z,44542.8
2019-03-06T13:04:01.089Z,44596.5
2019-03-06T13:05:01.085Z,44724.8
2019-03-06T13:06:01.086Z,44612.5
2019-03-06T13:07:01.261Z,44471.3
2019-03-06T13:08:01.103Z,44329.9
2019-03-06T13:09:01.057Z,43896.3
2019-03-06T13:10:01.093Z,43393.1
2019-03-06T13:11:01.086Z,42924.3
2019-03-06T13:12:01.240Z,42472.3
2019-03-06T13:13:01.093Z,41975.2
2019-03-06T13:14:01.061Z,41392.3
2019-03-06T13:15:01.086Z,40754.3
2019-03-06T13:16:01.098Z,40107.7
2019-03-06T13:17:01.220Z,39470.4
2019-03-06T13:18:01.086Z,38784.2
2019-03-06T13:19:01.054Z,38058.7
2019-03-06T13:20:01.067Z,37376.7
2019-03-06T13:21:01.091Z,36741.1
2019-03-06T13:22:01.292Z,36114.5
2019-03-06T13:23:01.060Z,35519.1
2019-03-06T13:24:01.132Z,35025.4
2019-03-06T13:25:01.088Z,34559.3
2019-03-06T13:26:09.806Z,34114.1
2019-03-06T13:27:01.214Z,33733.5
2019-03-06T13:28:01.087Z,33419.3
2019-03-06T13:29:01.056Z,33103.4
2019-03-06T13:30:01.096Z,32739.0
2019-03-06T13:31:06.094Z,32410.5
2019-03-06T13:32:01.297Z,32172.1
2019-03-06T13:33:01.095Z,32032.7
2019-03-06T13:34:01.093Z,31932.4
2019-03-06T13:35:01.092Z,31834.3
2019-03-06T13:36:06.070Z,31724.7
2019-03-06T13:37:01.236Z,31588.1
2019-03-06T13:38:01.128Z,31419.3
2019-03-06T13:39:06.187Z,31274.5
2019-03-06T13:40:03.215Z,31199.4
2019-03-06T13:41:01.085Z,31193.4
2019-03-06T13:42:01.207Z,31183.6
2019-03-06T13:43:01.065Z,31188.8
2019-03-06T13:44:01.074Z,31273.9
2019-03-06T13:45:01.069Z,31490.6
2019-03-06T13:46:01.117Z,31779.1
2019-03-06T13:47:01.207Z,32021.2
2019-03-06T13:48:01.061Z,32162.3
2019-03-06T13:49:01.096Z,32228.7
2019-03-06T13:50:01.092Z,32294.7
2019-03-06T13:51:06.062Z,32425.9
2019-03-06T13:52:01.202Z,32634.5
2019-03-06T13:53:01.092Z,32849.7
2019-03-06T13:54:01.060Z,32956.5
2019-03-06T13:55:06.099Z,33011.9
2019-03-06T13:56:01.860Z,33051.3
2019-03-06T13:57:01.246Z,33085.5
2019-03-06T13:58:01.069Z,33095.9
2019-03-06T14:00:01.085Z,33166.8
2019-03-06T14:01:01.051Z,33218.3
2019-03-06T14:02:01.192Z,33294.0
2019-03-06T14:03:01.083Z,33440.0
2019-03-06T14:04:01.082Z,33618.1
2019-03-06T14:05:01.087Z,33927.8
2019-03-06T14:06:01.121Z,34325.1
2019-03-06T14:07:01.241Z,34676.1
2019-03-06T14:08:01.084Z,34929.3
2019-03-06T14:09:01.089Z,35174.1
2019-03-06T14:10:01.092Z,35455.4
2019-03-06T14:11:01.078Z,35713.7
2019-03-06T14:12:01.224Z,35904.2
2019-03-06T14:13:01.055Z,36041.1
2019-03-06T14:14:01.056Z,36106.2
2019-03-06T14:15:01.084Z,35979.7
2019-03-06T14:16:01.198Z,35651.8
2019-03-06T14:17:01.231Z,35099.7
2019-03-06T14:18:01.096Z,34439.4
2019-03-06T14:19:01.085Z,33750.7
2019-03-06T14:20:01.083Z,32954.2
2019-03-06T14:21:01.085Z,32093.9
2019-03-06T14:22:01.192Z,31300.1
2019-03-06T14:23:01.087Z,30652.1
2019-03-06T14:24:01.055Z,30104.1
2019-03-06T14:25:01.087Z,29589.9
2019-03-06T14:26:01.049Z,29016.4
2019-03-06T14:27:01.285Z,28388.0
2019-03-06T14:28:01.083Z,27712.6
2019-03-06T14:29:01.057Z,27017.3
2019-03-06T14:30:01.087Z,26333.3
2019-03-06T14:31:01.055Z,25778.0
2019-03-06T14:32:01.252Z,25395.1
2019-03-06T14:33:01.052Z,25154.9
2019-03-06T14:34:01.085Z,25163.5
2019-03-06T14:35:01.054Z,25533.8
2019-03-06T14:36:01.084Z,26101.9
2019-03-06T14:37:01.268Z,26623.9
2019-03-06T14:38:01.086Z,27056.3
2019-03-06T14:39:01.068Z,27517.4
2019-03-06T14:40:09.285Z,28182.9
2019-03-06T14:41:06.093Z,29106.1
2019-03-06T14:42:01.204Z,30265.1
2019-03-06T14:43:01.089Z,31593.8
2019-03-06T14:44:01.099Z,33156.7
2019-03-06T14:45:01.095Z,34936.8
2019-03-06T14:46:01.081Z,36880.1
2019-03-06T14:47:01.210Z,38933.2
2019-03-06T14:48:01.512Z,40923.8
2019-03-06T14:49:01.065Z,42608.8
2019-03-06T14:50:01.059Z,43731.4
2019-03-06T14:51:01.115Z,44385.4
2019-03-06T14:52:07.070Z,44899.1
2019-03-06T14:53:01.061Z,45472.9
2019-03-06T14:54:01.070Z,46175.9
2019-03-06T14:55:01.090Z,46945.9
2019-03-06T14:56:01.083Z,47657.4
2019-03-06T14:57:01.237Z,48222.1
2019-03-06T14:58:01.095Z,48639.7
2019-03-06T14:59:01.098Z,48850.2
2019-03-06T15:00:01.106Z,48998.7
2019-03-06T15:01:06.101Z,49160.9
2019-03-06T15:02:01.204Z,49263.7
2019-03-06T15:03:01.092Z,49400.1
2019-03-06T15:04:01.094Z,49664.5
2019-03-06T15:05:01.087Z,50100.3
2019-03-06T15:06:01.094Z,50569.7
2019-03-06T15:07:01.212Z,50879.5
2019-03-06T15:08:01.100Z,51013.8
2019-03-06T15:09:01.061Z,50912.7
2019-03-06T15:10:06.095Z,50541.0
2019-03-06T15:11:01.094Z,50022.8
2019-03-06T15:12:01.210Z,49446.5
2019-03-06T15:13:01.097Z,48927.4
2019-03-06T15:14:01.097Z,48498.5
2019-03-06T15:15:01.144Z,48017.5
2019-03-06T15:16:01.063Z,47417.6
2019-03-06T15:17:01.224Z,46653.9
2019-03-06T15:18:10.091Z,45680.8
2019-03-06T15:19:01.094Z,44560.3
2019-03-06T15:20:01.104Z,43407.3
2019-03-06T15:21:01.080Z,42373.9
2019-03-06T15:22:02.277Z,41505.7
2019-03-06T15:23:01.112Z,40657.5
2019-03-06T15:24:01.082Z,39723.5
2019-03-06T15:25:01.389Z,38703.5
2019-03-06T15:26:01.072Z,37664.2
2019-03-06T15:27:01.279Z,36724.3
2019-03-06T15:28:01.106Z,35810.5
2019-03-06T15:29:01.104Z,34841.6
2019-03-06T15:30:01.146Z,33863.0
2019-03-06T15:31:01.701Z,32992.3
2019-03-06T15:32:01.251Z,32441.4
2019-03-06T15:33:01.070Z,32181.7
2019-03-06T15:34:01.106Z,32007.4
2019-03-06T15:36:01.086Z,31830.9
2019-03-06T15:37:01.253Z,31729.9
2019-03-06T15:38:01.054Z,31780.2
2019-03-06T15:39:01.085Z,32001.9
2019-03-06T15:40:01.087Z,32354.3
2019-03-06T15:41:01.116Z,32695.1
2019-03-06T15:42:01.551Z,32844.9
2019-03-06T15:43:01.090Z,32803.1
2019-03-06T15:44:01.094Z,32775.2
2019-03-06T15:45:01.116Z,32705.8
2019-03-06T15:46:06.064Z,32469.9
2019-03-06T15:47:01.204Z,31931.3
2019-03-06T15:48:01.094Z,31051.2
2019-03-06T15:49:01.065Z,29949.7
2019-03-06T15:50:01.066Z,28768.4
2019-03-06T15:51:01.126Z,27587.7
2019-03-06T15:52:01.209Z,26327.7
2019-03-06T15:53:01.067Z,24942.3
2019-03-06T15:54:01.068Z,23453.9
2019-03-06T15:55:01.093Z,21942.4
2019-03-06T15:56:01.093Z,20560.0
2019-03-06T15:57:01.202Z,19396.2
2019-03-06T15:58:01.095Z,18318.7
2019-03-06T15:59:01.065Z,17132.9
2019-03-06T16:00:01.105Z,15972.3
2019-03-06T16:01:01.178Z,14945.7
2019-03-06T16:02:01.254Z,14085.1
2019-03-06T16:03:01.074Z,13339.3
2019-03-06T16:04:01.097Z,12656.3
2019-03-06T16:05:06.112Z,12088.1
2019-03-06T16:06:01.105Z,11639.4
2019-03-06T16:07:01.219Z,11292.9
2019-03-06T16:08:01.105Z,10994.9
2019-03-06T16:09:01.101Z,10702.3
2019-03-06T16:10:01.142Z,10414.8
2019-03-06T16:11:01.074Z,10153.2
2019-03-06T16:12:01.217Z,9950.5
2019-03-06T16:13:01.099Z,9821.1
2019-03-06T16:14:01.102Z,9749.5
2019-03-06T16:16:06.084Z,9637.3
2019-03-06T16:17:01.264Z,9478.3
2019-03-06T16:18:01.086Z,9277.3
2019-03-06T16:19:01.057Z,9036.7
2019-03-06T16:20:01.090Z,8804.6
2019-03-06T16:21:06.091Z,8564.1
2019-03-06T16:22:01.275Z,8297.9
2019-03-06T16:23:01.086Z,8003.7
2019-03-06T16:24:01.494Z,7721.9
2019-03-06T16:25:01.068Z,7487.5
2019-03-06T16:26:01.125Z,7283.6
2019-03-06T16:27:01.238Z,7057.7
2019-03-06T16:28:01.063Z,6791.9
2019-03-06T16:29:01.094Z,6469.7
2019-03-06T16:30:01.098Z,6106.4
2019-03-06T16:31:06.062Z,5771.3
2019-03-06T16:32:01.310Z,5456.5
2019-03-06T16:33:01.142Z,5163.3
2019-03-06T16:34:01.066Z,4896.9
2019-03-06T16:35:01.098Z,4644.4
2019-03-06T16:36:01.062Z,4411.3
2019-03-06T16:37:01.300Z,4194.4
2019-03-06T16:38:01.098Z,3996.1
2019-03-06T16:39:01.064Z,3818.7
2019-03-06T16:40:06.098Z,3656.8
2019-03-06T16:41:01.097Z,3497.3
2019-03-06T16:42:01.215Z,3336.9
2019-03-06T16:43:01.095Z,3177.4
2019-03-06T16:44:01.096Z,3032.8
2019-03-06T16:45:01.107Z,2907.9
2019-03-06T16:46:01.067Z,2801.6
2019-03-06T16:47:06.564Z,2714.2
2019-03-06T16:48:01.094Z,2642.4
2019-03-06T16:49:01.098Z,2576.1
2019-03-06T16:50:01.124Z,2495.8
2019-03-06T16:51:01.098Z,2383.5
2019-03-06T16:52:01.248Z,2252.0
2019-03-06T16:53:01.098Z,2117.5
2019-03-06T16:54:01.067Z,1990.4
2019-03-06T16:55:06.064Z,1861.3
2019-03-06T16:56:01.099Z,1746.4
2019-03-06T16:57:01.240Z,1646.9
2019-03-06T16:58:01.067Z,1550.5
2019-03-06T16:59:01.072Z,1460.4
2019-03-06T17:00:06.095Z,1376.4
2019-03-06T17:01:01.099Z,1301.9
2019-03-06T17:02:01.241Z,1225.9
2019-03-06T17:03:01.069Z,1149.4
2019-03-06T17:04:01.113Z,1070.4
2019-03-06T17:05:06.063Z,993.6
2019-03-06T17:06:01.666Z,928.0
2019-03-06T17:07:01.252Z,867.0
2019-03-06T17:08:01.073Z,813.9
2019-03-06T17:09:01.099Z,763.9
2019-03-06T17:10:06.075Z,714.9
2019-03-06T17:11:01.106Z,664.3
2019-03-06T17:12:01.259Z,614.9
2019-03-06T17:13:01.121Z,568.5
2019-03-06T17:14:01.074Z,523.1
2019-03-06T17:15:06.089Z,478.2
2019-03-06T17:17:01.195Z,430.2
2019-03-06T17:18:01.117Z,385.0
2019-03-06T17:19:01.085Z,343.3
2019-03-06T17:20:01.090Z,308.0
2019-03-06T17:21:01.053Z,276.5
2019-03-06T17:22:01.199Z,247.3
2019-03-06T17:23:01.052Z,221.3
2019-03-06T17:24:01.089Z,196.6
2019-03-06T17:25:01.058Z,173.3
2019-03-06T17:26:01.366Z,151.7
2019-03-06T17:27:01.237Z,132.1
2019-03-06T17:28:01.087Z,113.3
2019-03-06T17:29:01.090Z,95.9
2019-03-06T17:30:01.056Z,80.4
2019-03-06T17:31:01.057Z,66.9
2019-03-06T17:32:01.237Z,57.3
2019-03-06T17:33:01.056Z,49.3
2019-03-06T17:34:01.053Z,42.5
2019-03-06T17:35:01.087Z,36.6
2019-03-06T17:36:06.092Z,31.6
2019-03-06T17:37:01.382Z,27.1
2019-03-06T17:38:01.060Z,23.1
2019-03-06T17:39:01.088Z,19.4
2019-03-06T17:40:01.165Z,16.4
2019-03-06T17:41:06.055Z,13.8
2019-03-06T17:42:01.335Z,11.7
2019-03-06T17:43:01.104Z,10.1
2019-03-06T17:44:01.094Z,8.6
2019-03-06T17:45:01.095Z,7.3
2019-03-06T17:46:01.091Z,6.1
2019-03-06T17:47:01.213Z,5.1
2019-03-06T17:48:01.100Z,4.3
2019-03-06T17:49:01.093Z,3.7
2019-03-06T17:50:01.091Z,3.1
2019-03-06T17:51:01.116Z,2.7
2019-03-06T17:52:01.235Z,2.2
2019-03-06T17:53:01.060Z,1.8
2019-03-06T17:54:02.006Z,1.5
2019-03-06T17:55:01.071Z,1.2
2019-03-06T17:56:06.109Z,1.0
2019-03-06T17:57:01.238Z,0.8
2019-03-06T17:58:01.114Z,0.7
2019-03-06T17:59:01.095Z,0.5
2019-03-06T18:00:01.107Z,0.4
2019-03-06T18:01:01.092Z,0.3
2019-03-06T18:03:01.253Z,0.2
2019-03-06T18:04:01.096Z,0.1
